Time,TemperatureF,DewpointF,PressureIn,WindDirection,WindDirectionDegrees,WindSpeedMPH,WindSpeedGustMPH,Humidity,HourlyPrecipIn,Conditions,Clouds,dailyrainin,SoftwareType,DateUTC
2013-03-10 00:00:00,28.0,23.3,30.32,SE,128,0.0,0.0,82,0.00,RA,RA,0.00,WeatherDisplay:10.37,2013-03-10 05:00:00,
2013-03-10 00:10:00,27.6,22.8,30.32,SE,128,0.0,0.0,82,0.00,,,0.00,WeatherDisplay:10.37,2013-03-10 05:10:00,
2013-03-10 00:20:00,27.5,22.7,30.31,SE,128,0.0,0.0,82,0.00,,,0.00,WeatherDisplay:10.37,2013-03-10 05:20:00,
2013-03-10 00:30:00,27.7,23.2,30.31,SE,128,0.0,0.0,83,0.00,,,0.00,WeatherDisplay:10.37,2013-03-10 05:30:00,
2013-03-10 00:40:00,27.5,23.0,30.32,SE,128,0.0,0.0,83,0.00,,,0.00,WeatherDisplay:10.37,2013-03-10 05:40:00,
2013-03-10 00:50:00,27.3,23.1,30.33,SE,128,0.0,0.0,84,0.00,,,0.00,WeatherDisplay:10.37,2013-03-10 05:50:00,
2013-03-10 00:59:00,27.0,22.5,30.34,SE,128,0.0,0.0,83,0.00,,,0.00,WeatherDisplay:10.37,2013-03-10 05:59:00,
2013-03-10 01:10:00,26.8,22.3,30.34,SE,128,0.0,0.0,83,0.00,,,0.00,WeatherDisplay:10.37,2013-03-10 06:10:00,
2013-03-10 01:20:00,26.8,22.3,30.33,SE,129,1.0,0.0,83,0.00,,,0.00,WeatherDisplay:10.37,2013-03-10 06:20:00,
2013-03-10 01:30:00,27.1,22.9,30.33,SE,128,0.0,0.0,84,0.00,,,0.00,WeatherDisplay:10.37,2013-03-10 06:30:00,
2013-03-10 01:40:00,26.8,22.6,30.33,SE,128,0.0,0.0,84,0.00,,,0.00,WeatherDisplay:10.37,2013-03-10 06:40:00,
2013-03-10 01:50:00,26.2,22.1,30.33,SE,128,0.0,0.0,84,0.00,,,0.00,WeatherDisplay:10.37,2013-03-10 06:50:00,
2013-03-10 01:59:00,26.3,22.4,30.34,SE,128,0.0,0.0,85,0.00,,,0.00,WeatherDisplay:10.37,2013-03-10 06:59:00,
2013-03-10 03:10:00,26.2,22.3,30.33,SE,128,0.0,0.0,85,0.00,,,0.00,WeatherDisplay:10.37,2013-03-10 07:10:00,
2013-03-10 03:20:00,26.2,22.3,30.33,SE,128,0.0,0.0,85,0.00,,,0.00,WeatherDisplay:10.37,2013-03-10 07:20:00,
2013-03-10 03:30:00,26.1,22.2,30.33,SE,129,0.0,0.0,85,0.00,,,0.00,WeatherDisplay:10.37,2013-03-10 07:30:00,
2013-03-10 03:40:00,26.1,22.2,30.32,SE,128,0.0,0.0,85,0.00,,,0.00,WeatherDisplay:10.37,2013-03-10 07:40:00,
2013-03-10 03:50:00,25.7,21.8,30.33,SE,128,0.0,0.0,85,0.00,,,0.00,WeatherDisplay:10.37,2013-03-10 07:50:00,
2013-03-10 03:59:00,26.1,22.4,30.33,SE,128,0.0,0.0,86,0.00,,,0.00,WeatherDisplay:10.37,2013-03-10 07:59:00,
2013-03-10 04:10:00,25.3,21.5,30.32,SE,128,0.0,0.0,85,0.00,,,0.00,WeatherDisplay:10.37,2013-03-10 08:10:00,
2013-03-10 04:20:00,24.8,20.9,30.32,SE,128,0.0,0.0,85,0.00,,,0.00,WeatherDisplay:10.37,2013-03-10 08:20:00,
2013-03-10 04:30:00,24.4,20.6,30.32,SE,128,0.0,0.0,85,0.00,,,0.00,WeatherDisplay:10.37,2013-03-10 08:30:00,
2013-03-10 04:40:00,24.4,20.6,30.33,SE,128,0.0,0.0,85,0.00,,,0.00,WeatherDisplay:10.37,2013-03-10 08:40:00,
2013-03-10 04:50:00,24.1,20.2,30.34,SE,128,0.0,0.0,85,0.00,,,0.00,WeatherDisplay:10.37,2013-03-10 08:50:00,
2013-03-10 04:59:00,23.6,19.7,30.33,SE,128,0.0,0.0,85,0.00,,,0.00,WeatherDisplay:10.37,2013-03-10 08:59:00,
2013-03-10 05:10:00,23.5,19.7,30.32,SE,128,0.0,0.0,85,0.00,,,0.00,WeatherDisplay:10.37,2013-03-10 09:10:00,
2013-03-10 05:20:00,23.4,19.5,30.32,SE,128,0.0,0.0,85,0.00,,,0.00,WeatherDisplay:10.37,2013-03-10 09:20:00,
2013-03-10 05:30:00,23.5,19.7,30.32,SE,128,0.0,0.0,85,0.00,,,0.00,WeatherDisplay:10.37,2013-03-10 09:30:00,
2013-03-10 05:40:00,23.4,19.5,30.33,SE,128,0.0,0.0,85,0.00,,,0.00,WeatherDisplay:10.37,2013-03-10 09:40:00,
2013-03-10 05:50:00,23.0,18.9,30.33,SE,128,0.0,0.0,84,0.00,,,0.00,WeatherDisplay:10.37,2013-03-10 09:50:00,
2013-03-10 05:59:00,23.5,19.7,30.32,SE,128,0.0,0.0,85,0.00,,,0.00,WeatherDisplay:10.37,2013-03-10 09:59:00,
2013-03-10 06:10:00,23.2,19.1,30.32,SE,128,0.0,0.0,84,0.00,,,0.00,WeatherDisplay:10.37,2013-03-10 10:10:00,
2013-03-10 06:20:00,23.0,18.9,30.32,SE,128,0.0,0.0,84,0.00,,,0.00,WeatherDisplay:10.37,2013-03-10 10:20:00,
2013-03-10 06:30:00,22.6,18.5,30.33,SE,128,0.0,0.0,84,0.00,,,0.00,WeatherDisplay:10.37,2013-03-10 10:30:00,
2013-03-10 06:40:00,23.0,18.9,30.34,SE,144,0.0,0.0,84,0.00,,,0.00,WeatherDisplay:10.37,2013-03-10 10:40:00,
2013-03-10 06:50:00,23.0,18.9,30.34,SSE,150,0.0,0.0,84,0.00,,,0.00,WeatherDisplay:10.37,2013-03-10 10:50:00,
2013-03-10 06:59:00,22.6,18.5,30.36,SSE,150,0.0,0.0,84,0.00,,,0.00,WeatherDisplay:10.37,2013-03-10 10:59:00,
2013-03-10 07:10:00,22.6,18.5,30.36,SSE,150,0.0,0.0,84,0.00,,,0.00,WeatherDisplay:10.37,2013-03-10 11:10:00,
2013-03-10 07:20:00,22.5,18.4,30.35,SSE,150,0.0,0.0,84,0.00,,,0.00,WeatherDisplay:10.37,2013-03-10 11:20:00,
2013-03-10 07:30:00,22.5,18.4,30.36,SSE,150,0.0,0.0,84,0.00,,,0.00,WeatherDisplay:10.37,2013-03-10 11:30:00,
2013-03-10 07:40:00,22.6,18.5,30.38,SSE,150,0.0,0.0,84,0.00,,,0.00,WeatherDisplay:10.37,2013-03-10 11:40:00,
2013-03-10 07:50:00,22.6,18.5,30.36,SSE,150,0.0,0.0,84,0.00,,,0.00,WeatherDisplay:10.37,2013-03-10 11:50:00,
2013-03-10 07:59:00,22.6,18.8,30.36,SSE,150,0.0,0.0,85,0.00,,,0.00,WeatherDisplay:10.37,2013-03-10 11:59:00,
2013-03-10 08:10:00,23.5,19.7,30.38,SSE,150,0.0,0.0,85,0.00,,,0.00,WeatherDisplay:10.37,2013-03-10 12:10:00,
2013-03-10 08:20:00,24.4,20.6,30.38,SSE,150,0.0,0.0,85,0.00,,,0.00,WeatherDisplay:10.37,2013-03-10 12:20:00,
2013-03-10 08:30:00,25.3,21.5,30.36,SSE,150,0.0,0.0,85,0.00,,,0.00,WeatherDisplay:10.37,2013-03-10 12:30:00,
2013-03-10 08:40:00,26.1,22.2,30.36,SSE,150,0.0,0.0,85,0.00,,,0.00,WeatherDisplay:10.37,2013-03-10 12:40:00,
2013-03-10 08:50:00,26.6,22.7,30.38,SSE,159,0.0,0.0,85,0.00,,,0.00,WeatherDisplay:10.37,2013-03-10 12:50:00,
2013-03-10 08:59:00,27.1,23.2,30.38,SW,218,0.0,0.0,85,0.00,,,0.00,WeatherDisplay:10.37,2013-03-10 12:59:00,
2013-03-10 09:10:00,28.0,24.1,30.38,SW,218,0.0,0.0,85,0.00,,,0.00,WeatherDisplay:10.37,2013-03-10 13:10:00,
2013-03-10 09:20:00,28.8,24.8,30.38,SW,218,0.0,0.0,85,0.00,,,0.00,WeatherDisplay:10.37,2013-03-10 13:20:00,
2013-03-10 09:30:00,29.4,25.5,30.38,West,277,0.0,0.0,85,0.00,,,0.00,WeatherDisplay:10.37,2013-03-10 13:30:00,
2013-03-10 09:40:00,30.2,26.2,30.37,North,7,0.0,0.0,85,0.00,,,0.00,WeatherDisplay:10.37,2013-03-10 13:40:00,
2013-03-10 09:50:00,30.7,26.5,30.36,North,356,0.0,0.0,84,0.00,,,0.00,WeatherDisplay:10.37,2013-03-10 13:50:00,
2013-03-10 09:59:00,31.1,26.8,30.36,NNE,13,0.0,0.0,84,0.00,,,0.00,WeatherDisplay:10.37,2013-03-10 13:59:00,
2013-03-10 10:10:00,31.5,27.2,30.36,ENE,58,0.0,0.0,84,0.00,,,0.00,WeatherDisplay:10.37,2013-03-10 14:10:00,
2013-03-10 10:20:00,32.1,27.5,30.36,ESE,107,1.0,0.0,83,0.00,,,0.00,WeatherDisplay:10.37,2013-03-10 14:20:00,
2013-03-10 10:30:00,32.5,27.9,30.38,ESE,107,0.0,0.0,83,0.00,,,0.00,WeatherDisplay:10.37,2013-03-10 14:30:00,
2013-03-10 10:40:00,32.7,28.1,30.36,NE,38,0.0,0.0,83,0.00,,,0.00,WeatherDisplay:10.37,2013-03-10 14:40:00,
2013-03-10 10:50:00,32.6,27.7,30.36,NNE,20,0.0,0.0,82,0.00,,,0.00,WeatherDisplay:10.37,2013-03-10 14:50:00,
2013-03-10 10:59:00,32.8,28.2,30.36,NNE,19,0.0,0.0,83,0.00,,,0.00,WeatherDisplay:10.37,2013-03-10 14:59:00,
2013-03-10 11:10:00,33.3,28.4,30.36,NNE,12,0.0,0.0,82,0.00,,,0.00,WeatherDisplay:10.37,2013-03-10 15:10:00,
2013-03-10 11:20:00,33.4,28.5,30.35,NE,35,0.0,0.0,82,0.00,,,0.00,WeatherDisplay:10.37,2013-03-10 15:20:00,
2013-03-10 11:30:00,33.8,28.9,30.35,NNW,332,0.0,0.0,82,0.00,,,0.00,WeatherDisplay:10.37,2013-03-10 15:30:00,
2013-03-10 11:40:00,34.0,28.8,30.34,North,4,0.0,0.0,81,0.00,,,0.00,WeatherDisplay:10.37,2013-03-10 15:40:00,
2013-03-10 11:50:00,34.3,29.4,30.34,NNE,18,1.0,0.0,82,0.00,,,0.00,WeatherDisplay:10.37,2013-03-10 15:50:00,
2013-03-10 11:59:00,34.7,29.5,30.33,North,351,5.0,0.0,81,0.00,,,0.00,WeatherDisplay:10.37,2013-03-10 15:59:00,
2013-03-10 12:10:00,34.9,29.3,30.33,NNE,27,0.0,0.0,80,0.00,,,0.00,WeatherDisplay:10.37,2013-03-10 16:10:00,
2013-03-10 12:20:00,35.1,29.5,30.33,North,349,0.0,0.0,80,0.00,,,0.00,WeatherDisplay:10.37,2013-03-10 16:20:00,
2013-03-10 12:30:00,35.2,29.7,30.33,ENE,62,2.0,0.0,80,0.00,,,0.00,WeatherDisplay:10.37,2013-03-10 16:30:00,
2013-03-10 12:40:00,35.3,29.4,30.33,ESE,102,7.0,0.0,79,0.00,,,0.00,WeatherDisplay:10.37,2013-03-10 16:40:00,
2013-03-10 12:50:00,35.6,29.5,30.33,ENE,66,1.0,0.0,78,0.00,,,0.00,WeatherDisplay:10.37,2013-03-10 16:50:00,
2013-03-10 12:59:00,35.6,29.4,30.33,SW,228,9.0,0.0,78,0.00,,,0.00,WeatherDisplay:10.37,2013-03-10 16:59:00,
2013-03-10 13:10:00,35.8,29.6,30.32,NE,41,2.0,0.0,78,0.00,,,0.00,WeatherDisplay:10.37,2013-03-10 17:10:00,
2013-03-10 13:20:00,36.0,29.4,30.33,NE,45,6.0,0.0,77,0.00,,,0.00,WeatherDisplay:10.37,2013-03-10 17:20:00,
2013-03-10 13:30:00,36.0,29.4,30.33,ENE,61,5.0,0.0,77,0.00,,,0.00,WeatherDisplay:10.37,2013-03-10 17:30:00,
2013-03-10 13:40:00,36.0,29.4,30.32,ESE,114,2.0,0.0,77,0.00,,,0.00,WeatherDisplay:10.37,2013-03-10 17:40:00,
2013-03-10 13:50:00,36.0,29.4,30.32,ESE,114,0.0,0.0,77,0.00,,,0.00,WeatherDisplay:10.37,2013-03-10 17:50:00,
2013-03-10 13:59:00,36.1,29.6,30.32,SE,126,1.0,0.0,77,0.00,,,0.00,WeatherDisplay:10.37,2013-03-10 17:59:00,
2013-03-10 14:10:00,36.1,29.6,30.31,ESE,120,3.0,0.0,77,0.00,,,0.00,WeatherDisplay:10.37,2013-03-10 18:10:00,
2013-03-10 14:20:00,36.5,29.7,30.31,SE,127,2.0,0.0,76,0.00,,,0.00,WeatherDisplay:10.37,2013-03-10 18:20:00,
2013-03-10 14:30:00,36.5,29.7,30.30,SE,128,1.0,0.0,76,0.00,,,0.00,WeatherDisplay:10.37,2013-03-10 18:30:00,
2013-03-10 14:40:00,36.5,29.7,30.30,East,99,1.0,0.0,76,0.00,,,0.00,WeatherDisplay:10.37,2013-03-10 18:40:00,
2013-03-10 14:50:00,36.8,29.9,30.30,SE,128,2.0,0.0,76,0.00,,,0.00,WeatherDisplay:10.37,2013-03-10 18:50:00,
2013-03-10 14:59:00,36.8,30.0,30.30,SE,128,2.0,0.0,76,0.00,,,0.00,WeatherDisplay:10.37,2013-03-10 18:59:00,
2013-03-10 15:10:00,37.0,30.2,30.30,SE,125,2.0,0.0,76,0.00,,,0.00,WeatherDisplay:10.37,2013-03-10 19:10:00,
2013-03-10 15:20:00,37.0,30.1,30.30,SE,128,0.0,0.0,76,0.00,,,0.00,WeatherDisplay:10.37,2013-03-10 19:20:00,
2013-03-10 15:30:00,37.0,30.1,30.30,SE,129,0.0,0.0,76,0.00,,,0.00,WeatherDisplay:10.37,2013-03-10 19:30:00,
2013-03-10 15:40:00,36.9,30.0,30.28,SE,128,1.0,0.0,76,0.00,,,0.00,WeatherDisplay:10.37,2013-03-10 19:40:00,
2013-03-10 15:50:00,37.0,30.2,30.30,SE,128,5.0,0.0,76,0.00,,,0.00,WeatherDisplay:10.37,2013-03-10 19:50:00,
2013-03-10 15:59:00,37.0,30.2,30.28,SE,128,6.0,0.0,76,0.00,,,0.00,WeatherDisplay:10.37,2013-03-10 19:59:00,
2013-03-10 16:10:00,37.0,30.2,30.30,SE,128,2.0,0.0,76,0.00,,,0.00,WeatherDisplay:10.37,2013-03-10 20:10:00,
2013-03-10 16:20:00,37.2,30.3,30.30,SE,130,0.0,0.0,76,0.00,,,0.00,WeatherDisplay:10.37,2013-03-10 20:20:00,
2013-03-10 16:30:00,37.4,30.5,30.30,SE,128,3.0,0.0,76,0.00,,,0.00,WeatherDisplay:10.37,2013-03-10 20:30:00,
2013-03-10 16:40:00,37.0,29.8,30.28,SE,128,2.0,0.0,75,0.00,,,0.00,WeatherDisplay:10.37,2013-03-10 20:40:00,
2013-03-10 16:50:00,37.0,30.2,30.28,SE,128,2.0,0.0,76,0.00,,,0.00,WeatherDisplay:10.37,2013-03-10 20:50:00,
2013-03-10 16:59:00,37.2,30.0,30.28,East,81,0.0,0.0,75,0.00,,,0.00,WeatherDisplay:10.37,2013-03-10 20:59:00,
2013-03-10 17:10:00,37.3,30.1,30.28,ENE,73,5.0,0.0,75,0.00,,,0.00,WeatherDisplay:10.37,2013-03-10 21:10:00,
2013-03-10 17:20:00,37.4,30.2,30.28,East,87,2.0,0.0,75,0.00,,,0.00,WeatherDisplay:10.37,2013-03-10 21:20:00,
2013-03-10 17:30:00,37.4,29.9,30.28,ENE,70,3.0,0.0,74,0.00,,,0.00,WeatherDisplay:10.37,2013-03-10 21:30:00,
2013-03-10 17:40:00,37.3,29.8,30.27,East,80,2.0,0.0,74,0.00,,,0.00,WeatherDisplay:10.37,2013-03-10 21:40:00,
2013-03-10 17:50:00,37.0,29.8,30.27,ENE,72,0.0,0.0,75,0.00,,,0.00,WeatherDisplay:10.37,2013-03-10 21:50:00,
2013-03-10 17:59:00,37.0,29.8,30.26,East,92,0.0,0.0,75,0.00,,,0.00,WeatherDisplay:10.37,2013-03-10 21:59:00,
2013-03-10 18:10:00,37.0,30.2,30.27,NE,45,3.0,0.0,76,0.00,,,0.00,WeatherDisplay:10.37,2013-03-10 22:10:00,
2013-03-10 18:20:00,36.9,30.0,30.26,ENE,75,0.0,0.0,76,0.00,,,0.00,WeatherDisplay:10.37,2013-03-10 22:20:00,
2013-03-10 18:30:00,36.5,29.3,30.27,East,85,1.0,0.0,75,0.00,,,0.00,WeatherDisplay:10.37,2013-03-10 22:30:00,
2013-03-10 18:40:00,36.4,29.2,30.26,East,92,1.0,0.0,75,0.00,,,0.00,WeatherDisplay:10.37,2013-03-10 22:40:00,
2013-03-10 18:50:00,36.3,29.5,30.27,East,83,0.0,0.0,76,0.00,,,0.00,WeatherDisplay:10.37,2013-03-10 22:50:00,
2013-03-10 18:59:00,36.0,29.2,30.27,ENE,69,3.0,0.0,76,0.00,,,0.00,WeatherDisplay:10.37,2013-03-10 22:59:00,
2013-03-10 19:10:00,36.0,29.4,30.27,ENE,69,1.0,0.0,77,0.00,,,0.00,WeatherDisplay:10.37,2013-03-10 23:10:00,
2013-03-10 19:20:00,35.8,29.3,30.27,ENE,69,0.0,0.0,77,0.00,,,0.00,WeatherDisplay:10.37,2013-03-10 23:20:00,
2013-03-10 19:30:00,35.6,29.1,30.28,ENE,62,1.0,0.0,77,0.00,,,0.00,WeatherDisplay:10.37,2013-03-10 23:30:00,
2013-03-10 19:40:00,35.6,29.1,30.28,ENE,64,2.0,0.0,77,0.00,,,0.00,WeatherDisplay:10.37,2013-03-10 23:40:00,
2013-03-10 19:50:00,35.2,29.1,30.28,North,0,9.0,0.0,78,0.00,,,0.00,WeatherDisplay:10.37,2013-03-10 23:50:00,
2013-03-10 19:59:00,35.2,29.1,30.28,NE,53,2.0,0.0,78,0.00,,,0.00,WeatherDisplay:10.37,2013-03-10 23:59:00,
2013-03-10 20:10:00,34.9,28.7,30.29,East,95,0.0,0.0,78,0.00,,,0.00,WeatherDisplay:10.37,2013-03-11 00:10:00,
2013-03-10 20:20:00,34.6,28.7,30.27,ENE,73,0.0,0.0,79,0.00,,,0.00,WeatherDisplay:10.37,2013-03-11 00:20:00,
2013-03-10 20:30:00,34.3,28.5,30.28,NE,51,1.0,0.0,79,0.00,,,0.00,WeatherDisplay:10.37,2013-03-11 00:30:00,
2013-03-10 20:40:00,34.3,28.5,30.27,NE,42,2.0,0.0,79,0.00,,,0.00,WeatherDisplay:10.37,2013-03-11 00:40:00,
2013-03-10 20:50:00,34.0,28.2,30.27,ENE,69,0.0,0.0,79,0.00,,,0.00,WeatherDisplay:10.37,2013-03-11 00:50:00,
2013-03-10 20:59:00,34.0,28.5,30.27,ENE,68,0.0,0.0,80,0.00,,,0.00,WeatherDisplay:10.37,2013-03-11 00:59:00,
2013-03-10 21:10:00,33.8,28.3,30.27,NNE,31,2.0,0.0,80,0.00,,,0.00,WeatherDisplay:10.37,2013-03-11 01:10:00,
2013-03-10 21:20:00,33.7,28.4,30.27,NE,55,0.0,0.0,81,0.00,,,0.00,WeatherDisplay:10.37,2013-03-11 01:20:00,
2013-03-10 21:30:00,33.4,27.9,30.27,East,85,3.0,0.0,80,0.00,,,0.00,WeatherDisplay:10.37,2013-03-11 01:30:00,
2013-03-10 21:40:00,33.4,28.2,30.26,ENE,73,1.0,0.0,81,0.00,,,0.00,WeatherDisplay:10.37,2013-03-11 01:40:00,
2013-03-10 21:50:00,33.3,28.1,30.26,East,82,0.0,0.0,81,0.00,,,0.00,WeatherDisplay:10.37,2013-03-11 01:50:00,
2013-03-10 21:59:00,33.3,28.1,30.26,ENE,63,0.0,0.0,81,0.00,,,0.00,WeatherDisplay:10.37,2013-03-11 01:59:00,
2013-03-10 22:10:00,33.3,28.1,30.27,East,91,1.0,0.0,81,0.00,,,0.00,WeatherDisplay:10.37,2013-03-11 02:10:00,
2013-03-10 22:20:00,32.9,28.0,30.28,East,80,0.0,0.0,82,0.00,,,0.00,WeatherDisplay:10.37,2013-03-11 02:20:00,
2013-03-10 22:30:00,32.9,28.0,30.26,NE,51,0.0,0.0,82,0.00,,,0.00,WeatherDisplay:10.37,2013-03-11 02:30:00,
2013-03-10 22:40:00,32.7,27.5,30.26,East,83,0.0,0.0,81,0.00,,,0.00,WeatherDisplay:10.37,2013-03-11 02:40:00,
2013-03-10 22:50:00,32.7,27.8,30.26,East,83,0.0,0.0,82,0.00,,,0.00,WeatherDisplay:10.37,2013-03-11 02:50:00,
2013-03-10 22:59:00,32.7,27.8,30.26,ENE,62,0.0,0.0,82,0.00,,,0.00,WeatherDisplay:10.37,2013-03-11 02:59:00,
2013-03-10 23:10:00,32.7,27.8,30.27,NNE,30,0.0,0.0,82,0.00,,,0.00,WeatherDisplay:10.37,2013-03-11 03:10:00,
2013-03-10 23:20:00,32.4,27.5,30.26,East,88,0.0,0.0,82,0.00,,,0.00,WeatherDisplay:10.37,2013-03-11 03:20:00,
2013-03-10 23:30:00,32.4,27.5,30.25,ENE,70,0.0,0.0,82,0.00,,,0.00,WeatherDisplay:10.37,2013-03-11 03:30:00,
2013-03-10 23:40:00,32.4,27.8,30.25,ENE,66,0.0,0.0,83,0.00,,,0.00,WeatherDisplay:10.37,2013-03-11 03:40:00,